sensor_id;sensor_type;location;lat;lon;timestamp;temperature;humidity
71942;DHT22;59997;53.300;-6.260;2022-09-09T00:02:01;14.48;92.62
71942;DHT22;59997;53.300;-6.260;2022-09-09T00:16:20;14.44;92.74
71942;DHT22;59997;53.300;-6.260;2022-09-09T00:22:14;14.42;92.84
71942;DHT22;59997;53.300;-6.260;2022-09-09T00:24:44;14.36;92.94
71942;DHT22;59997;53.300;-6.260;2022-09-09T00:30:00;14.36;93.12
71942;DHT22;59997;53.300;-6.260;2022-09-09T00:32:29;14.34;93.11
71942;DHT22;59997;53.300;-6.260;2022-09-09T00:35:04;14.34;93.13
71942;DHT22;59997;53.300;-6.260;2022-09-09T00:38:08;14.31;93.27
71942;DHT22;59997;53.300;-6.260;2022-09-09T00:40:45;14.36;93.29
71942;DHT22;59997;53.300;-6.260;2022-09-09T00:55:50;14.30;93.50
71942;DHT22;59997;53.300;-6.260;2022-09-09T00:58:17;14.34;93.51
71942;DHT22;59997;53.300;-6.260;2022-09-09T01:00:57;14.37;93.45
71942;DHT22;59997;53.300;-6.260;2022-09-09T01:03:54;14.36;93.48
71942;DHT22;59997;53.300;-6.260;2022-09-09T01:06:32;14.40;93.47
71942;DHT22;59997;53.300;-6.260;2022-09-09T01:09:07;14.42;93.39
71942;DHT22;59997;53.300;-6.260;2022-09-09T01:11:57;14.38;93.52
71942;DHT22;59997;53.300;-6.260;2022-09-09T01:17:25;14.44;93.59
71942;DHT22;59997;53.300;-6.260;2022-09-09T01:28:11;14.48;93.54
71942;DHT22;59997;53.300;-6.260;2022-09-09T01:30:40;14.49;93.50
71942;DHT22;59997;53.300;-6.260;2022-09-09T01:33:15;14.52;93.44
71942;DHT22;59997;53.300;-6.260;2022-09-09T01:36:04;14.49;93.46
71942;DHT22;59997;53.300;-6.260;2022-09-09T01:38:34;14.52;93.50
71942;DHT22;59997;53.300;-6.260;2022-09-09T01:41:01;14.48;93.53
71942;DHT22;59997;53.300;-6.260;2022-09-09T01:43:28;14.48;93.49
71942;DHT22;59997;53.300;-6.260;2022-09-09T01:45:58;14.47;93.57
71942;DHT22;59997;53.300;-6.260;2022-09-09T01:48:25;14.49;93.46
71942;DHT22;59997;53.300;-6.260;2022-09-09T01:50:51;14.44;93.52
71942;DHT22;59997;53.300;-6.260;2022-09-09T01:53:19;14.42;93.57
71942;DHT22;59997;53.300;-6.260;2022-09-09T02:01:43;14.40;93.65
71942;DHT22;59997;53.300;-6.260;2022-09-09T02:04:47;14.40;93.65
71942;DHT22;59997;53.300;-6.260;2022-09-09T02:07:31;14.44;93.58
71942;DHT22;59997;53.300;-6.260;2022-09-09T02:10:17;14.38;93.54
71942;DHT22;59997;53.300;-6.260;2022-09-09T02:12:49;14.37;93.59
71942;DHT22;59997;53.300;-6.260;2022-09-09T02:15:28;14.36;93.66
71942;DHT22;59997;53.300;-6.260;2022-09-09T02:17:57;14.36;93.63
71942;DHT22;59997;53.300;-6.260;2022-09-09T02:20:25;14.40;93.66
71942;DHT22;59997;53.300;-6.260;2022-09-09T02:22:54;14.40;93.64
71942;DHT22;59997;53.300;-6.260;2022-09-09T02:25:23;14.40;93.61
71942;DHT22;59997;53.300;-6.260;2022-09-09T02:27:51;14.45;93.62
71942;DHT22;59997;53.300;-6.260;2022-09-09T02:30:18;14.44;93.54
71942;DHT22;59997;53.300;-6.260;2022-09-09T02:32:49;14.42;93.51
71942;DHT22;59997;53.300;-6.260;2022-09-09T02:35:21;14.44;93.58
71942;DHT22;59997;53.300;-6.260;2022-09-09T02:37:52;14.44;93.64
71942;DHT22;59997;53.300;-6.260;2022-09-09T02:40:19;14.44;93.64
71942;DHT22;59997;53.300;-6.260;2022-09-09T02:42:48;14.47;93.60
71942;DHT22;59997;53.300;-6.260;2022-09-09T02:45:19;14.44;93.59
71942;DHT22;59997;53.300;-6.260;2022-09-09T02:48:13;14.49;93.59
71942;DHT22;59997;53.300;-6.260;2022-09-09T02:51:05;14.51;93.60
71942;DHT22;59997;53.300;-6.260;2022-09-09T02:56:41;14.55;93.40
71942;DHT22;59997;53.300;-6.260;2022-09-09T02:59:07;14.47;93.53
71942;DHT22;59997;53.300;-6.260;2022-09-09T03:01:33;14.51;93.48
71942;DHT22;59997;53.300;-6.260;2022-09-09T03:04:03;14.52;93.53
71942;DHT22;59997;53.300;-6.260;2022-09-09T03:06:31;14.49;93.52
71942;DHT22;59997;53.300;-6.260;2022-09-09T03:08:56;14.51;93.64
71942;DHT22;59997;53.300;-6.260;2022-09-09T03:11:22;14.51;94.07
71942;DHT22;59997;53.300;-6.260;2022-09-09T03:13:48;14.45;94.31
71942;DHT22;59997;53.300;-6.260;2022-09-09T03:16:14;14.42;94.38
71942;DHT22;59997;53.300;-6.260;2022-09-09T03:18:41;14.47;94.40
71942;DHT22;59997;53.300;-6.260;2022-09-09T03:21:08;14.48;94.32
71942;DHT22;59997;53.300;-6.260;2022-09-09T03:23:34;14.44;94.17
71942;DHT22;59997;53.300;-6.260;2022-09-09T03:25:59;14.47;93.82
71942;DHT22;59997;53.300;-6.260;2022-09-09T03:28:27;14.47;93.78
71942;DHT22;59997;53.300;-6.260;2022-09-09T03:31:04;14.45;93.69
71942;DHT22;59997;53.300;-6.260;2022-09-09T03:33:31;14.45;93.72
71942;DHT22;59997;53.300;-6.260;2022-09-09T03:35:57;14.44;93.71
71942;DHT22;59997;53.300;-6.260;2022-09-09T03:38:24;14.44;93.64
71942;DHT22;59997;53.300;-6.260;2022-09-09T03:40:55;14.45;93.54
71942;DHT22;59997;53.300;-6.260;2022-09-09T03:43:24;14.38;93.58
71942;DHT22;59997;53.300;-6.260;2022-09-09T03:45:51;14.37;93.78
71942;DHT22;59997;53.300;-6.260;2022-09-09T03:48:17;14.34;93.91
71942;DHT22;59997;53.300;-6.260;2022-09-09T03:50:47;14.34;93.99
71942;DHT22;59997;53.300;-6.260;2022-09-09T03:53:14;14.33;93.95
71942;DHT22;59997;53.300;-6.260;2022-09-09T03:55:44;14.36;93.90
71942;DHT22;59997;53.300;-6.260;2022-09-09T03:58:15;14.38;93.85
71942;DHT22;59997;53.300;-6.260;2022-09-09T04:00:52;14.36;93.96
71942;DHT22;59997;53.300;-6.260;2022-09-09T04:03:19;14.36;94.01
71942;DHT22;59997;53.300;-6.260;2022-09-09T04:05:44;14.31;94.02
71942;DHT22;59997;53.300;-6.260;2022-09-09T04:08:10;14.30;94.14
71942;DHT22;59997;53.300;-6.260;2022-09-09T04:10:36;14.31;94.09
71942;DHT22;59997;53.300;-6.260;2022-09-09T04:13:03;14.30;94.27
71942;DHT22;59997;53.300;-6.260;2022-09-09T04:15:31;14.26;94.27
71942;DHT22;59997;53.300;-6.260;2022-09-09T04:17:56;14.27;94.30
71942;DHT22;59997;53.300;-6.260;2022-09-09T04:20:22;14.30;94.23
71942;DHT22;59997;53.300;-6.260;2022-09-09T04:22:48;14.33;94.17
71942;DHT22;59997;53.300;-6.260;2022-09-09T04:25:14;14.33;93.97
71942;DHT22;59997;53.300;-6.260;2022-09-09T04:27:39;14.30;93.99
71942;DHT22;59997;53.300;-6.260;2022-09-09T04:30:08;14.31;94.12
71942;DHT22;59997;53.300;-6.260;2022-09-09T04:32:35;14.28;94.11
71942;DHT22;59997;53.300;-6.260;2022-09-09T04:35:02;14.30;94.16
71942;DHT22;59997;53.300;-6.260;2022-09-09T04:37:27;14.30;94.22
71942;DHT22;59997;53.300;-6.260;2022-09-09T04:39:53;14.30;94.22
71942;DHT22;59997;53.300;-6.260;2022-09-09T04:42:19;14.31;94.12
71942;DHT22;59997;53.300;-6.260;2022-09-09T04:44:44;14.31;94.09
71942;DHT22;59997;53.300;-6.260;2022-09-09T04:47:10;14.31;94.04
71942;DHT22;59997;53.300;-6.260;2022-09-09T04:49:36;14.28;94.16
71942;DHT22;59997;53.300;-6.260;2022-09-09T04:52:02;14.28;94.14
71942;DHT22;59997;53.300;-6.260;2022-09-09T04:54:28;14.30;94.14
71942;DHT22;59997;53.300;-6.260;2022-09-09T04:56:54;14.27;94.16
71942;DHT22;59997;53.300;-6.260;2022-09-09T04:59:20;14.27;94.16
71942;DHT22;59997;53.300;-6.260;2022-09-09T05:01:48;14.28;94.16
71942;DHT22;59997;53.300;-6.260;2022-09-09T05:04:17;14.26;94.03
71942;DHT22;59997;53.300;-6.260;2022-09-09T05:06:45;14.26;94.13
71942;DHT22;59997;53.300;-6.260;2022-09-09T05:09:11;14.26;94.12
71942;DHT22;59997;53.300;-6.260;2022-09-09T05:11:38;14.27;93.97
71942;DHT22;59997;53.300;-6.260;2022-09-09T05:14:04;14.27;94.01
71942;DHT22;59997;53.300;-6.260;2022-09-09T05:16:30;14.23;94.04
71942;DHT22;59997;53.300;-6.260;2022-09-09T05:18:58;14.24;94.00
71942;DHT22;59997;53.300;-6.260;2022-09-09T05:21:25;14.23;94.15
71942;DHT22;59997;53.300;-6.260;2022-09-09T05:23:53;14.21;94.16
71942;DHT22;59997;53.300;-6.260;2022-09-09T05:26:21;14.20;94.21
71942;DHT22;59997;53.300;-6.260;2022-09-09T05:28:47;14.20;94.27
71942;DHT22;59997;53.300;-6.260;2022-09-09T05:31:14;14.20;94.19
71942;DHT22;59997;53.300;-6.260;2022-09-09T05:33:41;14.23;94.14
71942;DHT22;59997;53.300;-6.260;2022-09-09T05:36:12;14.20;94.14
71942;DHT22;59997;53.300;-6.260;2022-09-09T05:38:38;14.23;94.07
71942;DHT22;59997;53.300;-6.260;2022-09-09T05:41:05;14.23;94.09
71942;DHT22;59997;53.300;-6.260;2022-09-09T05:43:31;14.24;93.92
71942;DHT22;59997;53.300;-6.260;2022-09-09T05:46:02;14.27;93.95
71942;DHT22;59997;53.300;-6.260;2022-09-09T05:48:32;14.30;93.85
71942;DHT22;59997;53.300;-6.260;2022-09-09T05:50:59;14.30;93.91
71942;DHT22;59997;53.300;-6.260;2022-09-09T05:53:26;14.28;93.97
71942;DHT22;59997;53.300;-6.260;2022-09-09T05:56:16;14.27;93.95
71942;DHT22;59997;53.300;-6.260;2022-09-09T05:58:58;14.28;94.02
71942;DHT22;59997;53.300;-6.260;2022-09-09T06:01:29;14.27;94.04
71942;DHT22;59997;53.300;-6.260;2022-09-09T06:03:56;14.30;93.99
71942;DHT22;59997;53.300;-6.260;2022-09-09T06:06:25;14.31;93.93
71942;DHT22;59997;53.300;-6.260;2022-09-09T06:08:55;14.30;94.03
71942;DHT22;59997;53.300;-6.260;2022-09-09T06:11:28;14.34;94.02
71942;DHT22;59997;53.300;-6.260;2022-09-09T06:13:56;14.34;94.03
71942;DHT22;59997;53.300;-6.260;2022-09-09T06:16:26;14.33;94.07
71942;DHT22;59997;53.300;-6.260;2022-09-09T06:18:53;14.36;94.11
71942;DHT22;59997;53.300;-6.260;2022-09-09T06:21:22;14.37;94.05
71942;DHT22;59997;53.300;-6.260;2022-09-09T06:23:49;14.38;93.89
71942;DHT22;59997;53.300;-6.260;2022-09-09T06:26:23;14.40;93.96
71942;DHT22;59997;53.300;-6.260;2022-09-09T06:28:53;14.37;94.01
71942;DHT22;59997;53.300;-6.260;2022-09-09T06:31:21;14.44;93.94
71942;DHT22;59997;53.300;-6.260;2022-09-09T06:33:47;14.41;93.96
71942;DHT22;59997;53.300;-6.260;2022-09-09T06:36:21;14.44;93.94
71942;DHT22;59997;53.300;-6.260;2022-09-09T06:38:56;14.45;93.89
71942;DHT22;59997;53.300;-6.260;2022-09-09T06:41:25;14.52;93.73
71942;DHT22;59997;53.300;-6.260;2022-09-09T06:43:51;14.54;93.73
71942;DHT22;59997;53.300;-6.260;2022-09-09T06:46:24;14.55;93.70
71942;DHT22;59997;53.300;-6.260;2022-09-09T06:48:53;14.57;93.75
71942;DHT22;59997;53.300;-6.260;2022-09-09T06:51:23;14.58;93.73
71942;DHT22;59997;53.300;-6.260;2022-09-09T06:53:52;14.60;93.73
71942;DHT22;59997;53.300;-6.260;2022-09-09T06:56:32;14.61;93.62
71942;DHT22;59997;53.300;-6.260;2022-09-09T06:59:03;14.62;93.58
71942;DHT22;59997;53.300;-6.260;2022-09-09T07:01:49;14.67;93.63
71942;DHT22;59997;53.300;-6.260;2022-09-09T07:04:17;14.69;93.46
71942;DHT22;59997;53.300;-6.260;2022-09-09T07:06:45;14.69;93.43
71942;DHT22;59997;53.300;-6.260;2022-09-09T07:09:13;14.69;93.54
71942;DHT22;59997;53.300;-6.260;2022-09-09T07:11:43;14.71;93.41
71942;DHT22;59997;53.300;-6.260;2022-09-09T07:14:14;14.71;93.40
71942;DHT22;59997;53.300;-6.260;2022-09-09T07:16:45;14.72;93.48
71942;DHT22;59997;53.300;-6.260;2022-09-09T07:19:12;14.76;93.45
71942;DHT22;59997;53.300;-6.260;2022-09-09T07:21:40;14.80;93.21
71942;DHT22;59997;53.300;-6.260;2022-09-09T07:24:06;14.83;93.27
71942;DHT22;59997;53.300;-6.260;2022-09-09T07:26:39;14.83;93.20
71942;DHT22;59997;53.300;-6.260;2022-09-09T07:29:06;14.89;92.93
71942;DHT22;59997;53.300;-6.260;2022-09-09T07:31:35;14.89;93.09
71942;DHT22;59997;53.300;-6.260;2022-09-09T07:34:04;14.96;93.04
71942;DHT22;59997;53.300;-6.260;2022-09-09T07:36:35;15.00;92.97
71942;DHT22;59997;53.300;-6.260;2022-09-09T07:39:07;15.00;92.85
71942;DHT22;59997;53.300;-6.260;2022-09-09T07:41:47;15.04;92.87
71942;DHT22;59997;53.300;-6.260;2022-09-09T07:44:19;14.99;93.06
71942;DHT22;59997;53.300;-6.260;2022-09-09T07:46:47;15.00;93.03
71942;DHT22;59997;53.300;-6.260;2022-09-09T07:49:14;15.00;93.17
71942;DHT22;59997;53.300;-6.260;2022-09-09T07:51:43;15.06;92.97
71942;DHT22;59997;53.300;-6.260;2022-09-09T07:54:12;15.20;92.65
71942;DHT22;59997;53.300;-6.260;2022-09-09T07:56:39;15.30;92.72
71942;DHT22;59997;53.300;-6.260;2022-09-09T07:59:07;15.41;92.26
71942;DHT22;59997;53.300;-6.260;2022-09-09T08:01:43;15.51;92.32
71942;DHT22;59997;53.300;-6.260;2022-09-09T08:04:13;15.54;91.64
71942;DHT22;59997;53.300;-6.260;2022-09-09T08:06:49;15.61;91.80
71942;DHT22;59997;53.300;-6.260;2022-09-09T08:09:15;15.66;91.18
71942;DHT22;59997;53.300;-6.260;2022-09-09T08:11:42;15.87;91.00
71942;DHT22;59997;53.300;-6.260;2022-09-09T08:14:09;16.21;90.33
71942;DHT22;59997;53.300;-6.260;2022-09-09T08:16:37;16.52;90.06
71942;DHT22;59997;53.300;-6.260;2022-09-09T08:19:04;16.52;88.72
71942;DHT22;59997;53.300;-6.260;2022-09-09T08:21:32;16.80;88.96
71942;DHT22;59997;53.300;-6.260;2022-09-09T08:24:00;16.52;88.25
71942;DHT22;59997;53.300;-6.260;2022-09-09T08:26:30;16.59;89.11
71942;DHT22;59997;53.300;-6.260;2022-09-09T08:28:58;16.76;88.77
71942;DHT22;59997;53.300;-6.260;2022-09-09T08:31:30;17.03;87.43
71942;DHT22;59997;53.300;-6.260;2022-09-09T08:33:58;17.28;87.84
71942;DHT22;59997;53.300;-6.260;2022-09-09T08:36:27;18.14;84.89
71942;DHT22;59997;53.300;-6.260;2022-09-09T08:38:55;18.29;85.06
71942;DHT22;59997;53.300;-6.260;2022-09-09T08:58:24;16.79;87.94
71942;DHT22;59997;53.300;-6.260;2022-09-09T09:01:02;16.91;86.97
71942;DHT22;59997;53.300;-6.260;2022-09-09T09:04:03;17.15;85.76
71942;DHT22;59997;53.300;-6.260;2022-09-09T09:11:00;17.11;85.56
71942;DHT22;59997;53.300;-6.260;2022-09-09T09:12:56;17.12;86.41
71942;DHT22;59997;53.300;-6.260;2022-09-09T09:15:30;16.95;87.11
71942;DHT22;59997;53.300;-6.260;2022-09-09T09:17:56;16.87;86.93
71942;DHT22;59997;53.300;-6.260;2022-09-09T09:21:03;16.84;87.97
71942;DHT22;59997;53.300;-6.260;2022-09-09T09:23:38;16.87;88.22
71942;DHT22;59997;53.300;-6.260;2022-09-09T09:26:09;16.83;87.11
71942;DHT22;59997;53.300;-6.260;2022-09-09T09:28:36;16.86;86.64
71942;DHT22;59997;53.300;-6.260;2022-09-09T09:31:12;17.06;86.88
71942;DHT22;59997;53.300;-6.260;2022-09-09T09:33:54;17.15;86.19
71942;DHT22;59997;53.300;-6.260;2022-09-09T09:36:25;17.21;86.72
71942;DHT22;59997;53.300;-6.260;2022-09-09T09:39:00;17.21;85.41
71942;DHT22;59997;53.300;-6.260;2022-09-09T09:41:38;17.38;85.86
71942;DHT22;59997;53.300;-6.260;2022-09-09T09:44:05;17.40;85.27
71942;DHT22;59997;53.300;-6.260;2022-09-09T09:46:43;17.40;84.98
71942;DHT22;59997;53.300;-6.260;2022-09-09T09:49:09;17.39;85.71
71942;DHT22;59997;53.300;-6.260;2022-09-09T09:51:35;17.43;84.97
71942;DHT22;59997;53.300;-6.260;2022-09-09T09:54:27;17.59;85.25
71942;DHT22;59997;53.300;-6.260;2022-09-09T09:56:54;17.69;83.93
71942;DHT22;59997;53.300;-6.260;2022-09-09T09:59:36;17.86;84.41
71942;DHT22;59997;53.300;-6.260;2022-09-09T10:02:22;18.01;85.41
71942;DHT22;59997;53.300;-6.260;2022-09-09T10:05:25;18.02;83.04
71942;DHT22;59997;53.300;-6.260;2022-09-09T10:08:15;18.21;84.46
71942;DHT22;59997;53.300;-6.260;2022-09-09T10:19:46;18.43;80.81
71942;DHT22;59997;53.300;-6.260;2022-09-09T10:22:28;18.32;80.49
71942;DHT22;59997;53.300;-6.260;2022-09-09T10:28:03;18.52;81.17
71942;DHT22;59997;53.300;-6.260;2022-09-09T10:31:15;18.61;82.35
71942;DHT22;59997;53.300;-6.260;2022-09-09T10:33:56;18.55;80.88
71942;DHT22;59997;53.300;-6.260;2022-09-09T10:36:29;18.40;79.73
71942;DHT22;59997;53.300;-6.260;2022-09-09T10:38:59;18.46;80.85
71942;DHT22;59997;53.300;-6.260;2022-09-09T10:45:02;19.01;81.42
71942;DHT22;59997;53.300;-6.260;2022-09-09T10:56:29;19.85;74.80
71942;DHT22;59997;53.300;-6.260;2022-09-09T11:01:41;20.40;75.76
71942;DHT22;59997;53.300;-6.260;2022-09-09T11:04:29;20.55;70.05
71942;DHT22;59997;53.300;-6.260;2022-09-09T11:07:12;20.65;70.89
71942;DHT22;59997;53.300;-6.260;2022-09-09T11:09:54;20.08;72.08
71942;DHT22;59997;53.300;-6.260;2022-09-09T11:12:23;19.70;75.41
71942;DHT22;59997;53.300;-6.260;2022-09-09T11:14:58;19.63;76.38
71942;DHT22;59997;53.300;-6.260;2022-09-09T11:20:25;19.53;77.38
71942;DHT22;59997;53.300;-6.260;2022-09-09T11:23:17;19.59;76.77
71942;DHT22;59997;53.300;-6.260;2022-09-09T11:25:43;19.49;76.18
71942;DHT22;59997;53.300;-6.260;2022-09-09T11:34:14;19.02;77.42
71942;DHT22;59997;53.300;-6.260;2022-09-09T11:37:00;19.20;78.30
71942;DHT22;59997;53.300;-6.260;2022-09-09T11:42:15;20.50;76.24
71942;DHT22;59997;53.300;-6.260;2022-09-09T11:44:41;21.24;72.38
71942;DHT22;59997;53.300;-6.260;2022-09-09T11:47:24;21.19;72.32
71942;DHT22;59997;53.300;-6.260;2022-09-09T11:52:49;19.85;76.09
71942;DHT22;59997;53.300;-6.260;2022-09-09T11:55:34;19.49;78.21
71942;DHT22;59997;53.300;-6.260;2022-09-09T11:58:05;19.33;77.89
71942;DHT22;59997;53.300;-6.260;2022-09-09T12:03:06;20.26;74.87
71942;DHT22;59997;53.300;-6.260;2022-09-09T12:05:45;20.02;75.28
71942;DHT22;59997;53.300;-6.260;2022-09-09T12:08:27;19.95;77.03
71942;DHT22;59997;53.300;-6.260;2022-09-09T12:10:57;19.59;77.45
71942;DHT22;59997;53.300;-6.260;2022-09-09T12:13:27;19.35;77.90
71942;DHT22;59997;53.300;-6.260;2022-09-09T12:15:59;19.33;79.49
71942;DHT22;59997;53.300;-6.260;2022-09-09T12:18:37;19.36;78.75
71942;DHT22;59997;53.300;-6.260;2022-09-09T12:21:19;19.25;78.23
71942;DHT22;59997;53.300;-6.260;2022-09-09T12:23:55;19.43;78.70
71942;DHT22;59997;53.300;-6.260;2022-09-09T12:30:03;19.54;76.22
71942;DHT22;59997;53.300;-6.260;2022-09-09T12:32:29;19.66;76.86
71942;DHT22;59997;53.300;-6.260;2022-09-09T12:35:19;19.61;77.25
71942;DHT22;59997;53.300;-6.260;2022-09-09T12:37:58;19.42;77.45
71942;DHT22;59997;53.300;-6.260;2022-09-09T12:40:32;19.15;76.87
71942;DHT22;59997;53.300;-6.260;2022-09-09T12:43:21;19.11;77.90
71942;DHT22;59997;53.300;-6.260;2022-09-09T12:45:50;19.25;78.59
71942;DHT22;59997;53.300;-6.260;2022-09-09T12:48:29;19.42;78.65
71942;DHT22;59997;53.300;-6.260;2022-09-09T12:50:55;19.49;75.50
71942;DHT22;59997;53.300;-6.260;2022-09-09T12:53:28;19.53;76.20
71942;DHT22;59997;53.300;-6.260;2022-09-09T12:56:03;19.66;76.25
71942;DHT22;59997;53.300;-6.260;2022-09-09T12:58:35;20.47;75.03
71942;DHT22;59997;53.300;-6.260;2022-09-09T13:01:03;21.53;73.54
71942;DHT22;59997;53.300;-6.260;2022-09-09T13:03:32;21.57;68.44
71942;DHT22;59997;53.300;-6.260;2022-09-09T13:06:11;21.69;67.98
71942;DHT22;59997;53.300;-6.260;2022-09-09T13:08:37;21.92;67.40
71942;DHT22;59997;53.300;-6.260;2022-09-09T13:11:12;21.46;66.20
71942;DHT22;59997;53.300;-6.260;2022-09-09T13:13:40;21.24;67.97
71942;DHT22;59997;53.300;-6.260;2022-09-09T13:16:27;20.99;67.78
71942;DHT22;59997;53.300;-6.260;2022-09-09T13:19:16;20.78;70.39
71942;DHT22;59997;53.300;-6.260;2022-09-09T13:21:42;20.85;70.86
71942;DHT22;59997;53.300;-6.260;2022-09-09T13:24:32;20.74;69.47
71942;DHT22;59997;53.300;-6.260;2022-09-09T13:27:05;20.57;70.98
71942;DHT22;59997;53.300;-6.260;2022-09-09T13:29:52;20.57;71.44
71942;DHT22;59997;53.300;-6.260;2022-09-09T13:32:27;20.96;72.52
71942;DHT22;59997;53.300;-6.260;2022-09-09T13:35:02;21.39;70.05
71942;DHT22;59997;53.300;-6.260;2022-09-09T13:37:38;21.81;68.51
71942;DHT22;59997;53.300;-6.260;2022-09-09T13:40:17;21.29;67.87
71942;DHT22;59997;53.300;-6.260;2022-09-09T13:42:45;20.89;70.98
71942;DHT22;59997;53.300;-6.260;2022-09-09T13:45:26;20.77;69.92
71942;DHT22;59997;53.300;-6.260;2022-09-09T13:47:53;20.60;70.48
71942;DHT22;59997;53.300;-6.260;2022-09-09T13:50:26;20.34;71.20
71942;DHT22;59997;53.300;-6.260;2022-09-09T13:52:55;19.88;71.76
71942;DHT22;59997;53.300;-6.260;2022-09-09T13:55:27;19.53;74.31
71942;DHT22;59997;53.300;-6.260;2022-09-09T13:58:04;19.30;78.15
71942;DHT22;59997;53.300;-6.260;2022-09-09T14:00:34;19.23;81.44
71942;DHT22;59997;53.300;-6.260;2022-09-09T14:03:00;19.15;79.07
71942;DHT22;59997;53.300;-6.260;2022-09-09T14:05:39;19.11;78.62
71942;DHT22;59997;53.300;-6.260;2022-09-09T14:11:14;19.51;78.19
71942;DHT22;59997;53.300;-6.260;2022-09-09T14:13:40;19.53;78.96
71942;DHT22;59997;53.300;-6.260;2022-09-09T14:16:05;19.61;81.30
71942;DHT22;59997;53.300;-6.260;2022-09-09T14:18:31;19.57;78.74
71942;DHT22;59997;53.300;-6.260;2022-09-09T14:21:00;19.39;78.90
71942;DHT22;59997;53.300;-6.260;2022-09-09T14:23:27;19.36;80.40
71942;DHT22;59997;53.300;-6.260;2022-09-09T14:25:56;19.42;81.62
71942;DHT22;59997;53.300;-6.260;2022-09-09T14:28:23;19.45;81.43
71942;DHT22;59997;53.300;-6.260;2022-09-09T14:30:50;19.56;81.28
71942;DHT22;59997;53.300;-6.260;2022-09-09T14:33:19;19.57;80.03
71942;DHT22;59997;53.300;-6.260;2022-09-09T14:35:46;19.53;79.93
71942;DHT22;59997;53.300;-6.260;2022-09-09T14:38:12;19.67;80.81
71942;DHT22;59997;53.300;-6.260;2022-09-09T14:40:39;19.92;80.67
71942;DHT22;59997;53.300;-6.260;2022-09-09T14:43:05;19.89;79.86
71942;DHT22;59997;53.300;-6.260;2022-09-09T14:45:32;19.77;79.13
71942;DHT22;59997;53.300;-6.260;2022-09-09T14:48:01;19.78;80.07
71942;DHT22;59997;53.300;-6.260;2022-09-09T14:50:31;19.73;79.72
71942;DHT22;59997;53.300;-6.260;2022-09-09T14:53:09;19.29;76.93
71942;DHT22;59997;53.300;-6.260;2022-09-09T14:55:36;19.53;78.98
71942;DHT22;59997;53.300;-6.260;2022-09-09T14:58:03;20.18;77.71
71942;DHT22;59997;53.300;-6.260;2022-09-09T15:00:32;20.19;76.91
71942;DHT22;59997;53.300;-6.260;2022-09-09T15:02:59;20.18;77.71
71942;DHT22;59997;53.300;-6.260;2022-09-09T15:05:31;20.06;76.80
71942;DHT22;59997;53.300;-6.260;2022-09-09T15:08:01;19.63;73.41
71942;DHT22;59997;53.300;-6.260;2022-09-09T15:10:27;19.51;73.45
71942;DHT22;59997;53.300;-6.260;2022-09-09T15:12:53;19.50;74.62
71942;DHT22;59997;53.300;-6.260;2022-09-09T15:15:19;19.54;76.46
71942;DHT22;59997;53.300;-6.260;2022-09-09T15:17:45;19.47;72.03
71942;DHT22;59997;53.300;-6.260;2022-09-09T15:20:17;19.50;73.10
71942;DHT22;59997;53.300;-6.260;2022-09-09T15:22:45;19.49;73.90
71942;DHT22;59997;53.300;-6.260;2022-09-09T15:25:11;19.71;73.67
71942;DHT22;59997;53.300;-6.260;2022-09-09T15:27:40;19.82;73.40
71942;DHT22;59997;53.300;-6.260;2022-09-09T15:30:09;19.85;71.43
71942;DHT22;59997;53.300;-6.260;2022-09-09T15:32:35;19.82;72.89
71942;DHT22;59997;53.300;-6.260;2022-09-09T15:35:08;19.70;73.19
71942;DHT22;59997;53.300;-6.260;2022-09-09T15:37:33;19.43;74.22
71942;DHT22;59997;53.300;-6.260;2022-09-09T15:40:00;19.40;74.91
71942;DHT22;59997;53.300;-6.260;2022-09-09T15:42:27;19.22;75.65
71942;DHT22;59997;53.300;-6.260;2022-09-09T15:44:53;19.09;75.88
71942;DHT22;59997;53.300;-6.260;2022-09-09T15:47:18;19.02;76.46
71942;DHT22;59997;53.300;-6.260;2022-09-09T15:49:45;18.90;77.49
71942;DHT22;59997;53.300;-6.260;2022-09-09T15:52:13;18.98;77.36
71942;DHT22;59997;53.300;-6.260;2022-09-09T15:54:42;18.95;77.00
71942;DHT22;59997;53.300;-6.260;2022-09-09T15:57:14;18.92;76.73
71942;DHT22;59997;53.300;-6.260;2022-09-09T16:00:05;18.85;77.01
71942;DHT22;59997;53.300;-6.260;2022-09-09T16:02:35;18.66;78.58
71942;DHT22;59997;53.300;-6.260;2022-09-09T16:05:03;18.66;79.27
71942;DHT22;59997;53.300;-6.260;2022-09-09T16:07:33;18.53;81.39
71942;DHT22;59997;53.300;-6.260;2022-09-09T16:10:04;18.45;81.64
71942;DHT22;59997;53.300;-6.260;2022-09-09T16:12:31;18.26;82.39
71942;DHT22;59997;53.300;-6.260;2022-09-09T16:15:05;18.12;82.80
71942;DHT22;59997;53.300;-6.260;2022-09-09T16:17:36;18.04;83.40
71942;DHT22;59997;53.300;-6.260;2022-09-09T16:20:05;17.93;83.72
71942;DHT22;59997;53.300;-6.260;2022-09-09T16:22:33;17.91;84.00
71942;DHT22;59997;53.300;-6.260;2022-09-09T16:24:59;18.00;84.05
71942;DHT22;59997;53.300;-6.260;2022-09-09T16:27:24;18.05;83.41
71942;DHT22;59997;53.300;-6.260;2022-09-09T16:29:51;18.11;82.81
71942;DHT22;59997;53.300;-6.260;2022-09-09T16:32:18;18.11;82.41
71942;DHT22;59997;53.300;-6.260;2022-09-09T16:34:47;18.19;82.80
71942;DHT22;59997;53.300;-6.260;2022-09-09T16:37:13;18.22;83.72
71942;DHT22;59997;53.300;-6.260;2022-09-09T16:39:39;18.19;83.58
71942;DHT22;59997;53.300;-6.260;2022-09-09T16:42:05;18.21;83.64
71942;DHT22;59997;53.300;-6.260;2022-09-09T16:44:36;18.15;79.58
71942;DHT22;59997;53.300;-6.260;2022-09-09T16:47:02;18.19;80.10
71942;DHT22;59997;53.300;-6.260;2022-09-09T16:49:29;18.18;80.58
71942;DHT22;59997;53.300;-6.260;2022-09-09T16:51:57;18.15;79.63
71942;DHT22;59997;53.300;-6.260;2022-09-09T16:54:24;18.14;80.84
71942;DHT22;59997;53.300;-6.260;2022-09-09T16:56:53;18.07;79.40
71942;DHT22;59997;53.300;-6.260;2022-09-09T16:59:20;18.07;81.39
71942;DHT22;59997;53.300;-6.260;2022-09-09T17:01:48;17.98;79.61
71942;DHT22;59997;53.300;-6.260;2022-09-09T17:04:16;17.94;81.33
71942;DHT22;59997;53.300;-6.260;2022-09-09T17:06:47;17.87;80.90
71942;DHT22;59997;53.300;-6.260;2022-09-09T17:09:16;17.81;82.27
71942;DHT22;59997;53.300;-6.260;2022-09-09T17:11:42;17.80;83.42
71942;DHT22;59997;53.300;-6.260;2022-09-09T17:14:10;17.80;83.60
71942;DHT22;59997;53.300;-6.260;2022-09-09T17:16:36;17.87;82.21
71942;DHT22;59997;53.300;-6.260;2022-09-09T17:19:04;17.83;82.90
71942;DHT22;59997;53.300;-6.260;2022-09-09T17:21:32;17.79;82.33
71942;DHT22;59997;53.300;-6.260;2022-09-09T17:24:02;17.74;83.88
71942;DHT22;59997;53.300;-6.260;2022-09-09T17:26:31;17.62;83.67
71942;DHT22;59997;53.300;-6.260;2022-09-09T17:28:59;17.61;83.29
71942;DHT22;59997;53.300;-6.260;2022-09-09T17:31:26;17.53;82.12
71942;DHT22;59997;53.300;-6.260;2022-09-09T17:33:52;17.53;81.76
71942;DHT22;59997;53.300;-6.260;2022-09-09T17:36:32;17.52;82.06
71942;DHT22;59997;53.300;-6.260;2022-09-09T17:39:01;17.47;81.48
71942;DHT22;59997;53.300;-6.260;2022-09-09T17:41:29;17.50;82.21
71942;DHT22;59997;53.300;-6.260;2022-09-09T17:43:56;17.57;82.06